sensor_id;sensor_type;location;lat;lon;timestamp;pressure;altitude;pressure_sealevel;temperature;humidity
59877;BME280;45749;51.140;17.184;2022-10-17T00:02:12;100955.72;;;13.61;91.41
59877;BME280;45749;51.140;17.184;2022-10-17T00:04:38;100949.09;;;13.61;91.02
59877;BME280;45749;51.140;17.184;2022-10-17T00:07:05;100944.98;;;13.57;91.21
59877;BME280;45749;51.140;17.184;2022-10-17T00:09:31;100947.99;;;13.52;91.21
59877;BME280;45749;51.140;17.184;2022-10-17T00:11:57;100945.92;;;13.50;91.25
59877;BME280;45749;51.140;17.184;2022-10-17T00:14:23;100943.62;;;13.51;91.11
59877;BME280;45749;51.140;17.184;2022-10-17T00:16:49;100943.62;;;13.51;90.96
59877;BME280;45749;51.140;17.184;2022-10-17T00:19:15;100940.62;;;13.50;90.98
59877;BME280;45749;51.140;17.184;2022-10-17T00:21:41;100939.88;;;13.48;91.19
59877;BME280;45749;51.140;17.184;2022-10-17T00:24:07;100940.50;;;13.46;91.18
59877;BME280;45749;51.140;17.184;2022-10-17T00:26:33;100934.80;;;13.45;91.39
59877;BME280;45749;51.140;17.184;2022-10-17T00:28:59;100937.69;;;13.42;91.69
59877;BME280;45749;51.140;17.184;2022-10-17T00:31:25;100935.52;;;13.36;91.81
59877;BME280;45749;51.140;17.184;2022-10-17T00:33:52;100938.98;;;13.31;92.23
59877;BME280;45749;51.140;17.184;2022-10-17T00:36:21;100940.88;;;13.29;92.61
59877;BME280;45749;51.140;17.184;2022-10-17T00:38:54;100941.85;;;13.28;92.55
59877;BME280;45749;51.140;17.184;2022-10-17T00:41:24;100942.95;;;13.31;92.66
59877;BME280;45749;51.140;17.184;2022-10-17T00:43:56;100941.89;;;13.33;92.73
59877;BME280;45749;51.140;17.184;2022-10-17T00:46:27;100936.45;;;13.35;92.70
59877;BME280;45749;51.140;17.184;2022-10-17T00:48:55;100945.64;;;13.36;92.72
59877;BME280;45749;51.140;17.184;2022-10-17T00:51:29;100946.48;;;13.37;92.73
59877;BME280;45749;51.140;17.184;2022-10-17T00:53:57;100948.64;;;13.37;92.81
59877;BME280;45749;51.140;17.184;2022-10-17T00:56:24;100958.76;;;13.38;92.90
59877;BME280;45749;51.140;17.184;2022-10-17T00:58:51;100965.39;;;13.38;93.11
59877;BME280;45749;51.140;17.184;2022-10-17T01:01:17;100969.85;;;13.37;93.16
59877;BME280;45749;51.140;17.184;2022-10-17T01:03:44;100964.42;;;13.39;93.14
59877;BME280;45749;51.140;17.184;2022-10-17T01:06:10;100966.00;;;13.42;92.95
59877;BME280;45749;51.140;17.184;2022-10-17T01:08:36;100958.05;;;13.42;92.68
59877;BME280;45749;51.140;17.184;2022-10-17T01:11:37;100957.70;;;13.41;92.47
59877;BME280;45749;51.140;17.184;2022-10-17T01:32:08;100956.00;;;13.21;92.46
59877;BME280;45749;51.140;17.184;2022-10-17T01:34:53;100961.53;;;13.18;92.69
59877;BME280;45749;51.140;17.184;2022-10-17T01:40:19;100959.71;;;13.13;93.03
59877;BME280;45749;51.140;17.184;2022-10-17T01:48:24;100961.48;;;13.07;93.17
59877;BME280;45749;51.140;17.184;2022-10-17T01:53:32;100970.62;;;13.08;92.96
59877;BME280;45749;51.140;17.184;2022-10-17T01:56:02;100963.51;;;13.03;92.99
59877;BME280;45749;51.140;17.184;2022-10-17T01:58:36;100970.09;;;12.98;93.24
59877;BME280;45749;51.140;17.184;2022-10-17T02:01:06;100966.43;;;12.93;93.39
59877;BME280;45749;51.140;17.184;2022-10-17T02:03:34;100961.48;;;12.88;93.24
59877;BME280;45749;51.140;17.184;2022-10-17T02:06:02;100965.58;;;12.87;93.17
59877;BME280;45749;51.140;17.184;2022-10-17T02:08:41;100951.24;;;12.89;92.99
59877;BME280;45749;51.140;17.184;2022-10-17T02:11:25;100950.53;;;12.87;92.70
59877;BME280;45749;51.140;17.184;2022-10-17T02:16:37;100943.81;;;12.76;92.99
59877;BME280;45749;51.140;17.184;2022-10-17T02:21:40;100944.73;;;12.70;93.61
59877;BME280;45749;51.140;17.184;2022-10-17T02:27:14;100945.43;;;12.66;94.02
59877;BME280;45749;51.140;17.184;2022-10-17T02:29:48;100945.08;;;12.65;94.42
59877;BME280;45749;51.140;17.184;2022-10-17T02:32:32;100943.48;;;12.62;94.57
59877;BME280;45749;51.140;17.184;2022-10-17T02:34:59;100943.62;;;12.66;94.66
59877;BME280;45749;51.140;17.184;2022-10-17T02:37:28;100949.09;;;12.71;94.61
59877;BME280;45749;51.140;17.184;2022-10-17T02:39:58;100958.02;;;12.75;94.62
59877;BME280;45749;51.140;17.184;2022-10-17T02:42:26;100964.64;;;12.75;94.55
59877;BME280;45749;51.140;17.184;2022-10-17T02:44:54;100967.65;;;12.76;94.52
59877;BME280;45749;51.140;17.184;2022-10-17T02:50:32;100985.08;;;12.73;94.54
59877;BME280;45749;51.140;17.184;2022-10-17T02:53:05;100982.77;;;12.68;94.60
59877;BME280;45749;51.140;17.184;2022-10-17T02:55:38;100989.39;;;12.68;94.88
59877;BME280;45749;51.140;17.184;2022-10-17T02:58:19;100990.92;;;12.65;94.71
59877;BME280;45749;51.140;17.184;2022-10-17T03:00:49;100995.86;;;12.64;94.58
59877;BME280;45749;51.140;17.184;2022-10-17T03:03:28;100991.14;;;12.62;94.58
59877;BME280;45749;51.140;17.184;2022-10-17T03:05:55;100980.46;;;12.64;94.55
59877;BME280;45749;51.140;17.184;2022-10-17T03:08:22;100989.13;;;12.66;94.49
59877;BME280;45749;51.140;17.184;2022-10-17T03:10:48;100995.86;;;12.64;94.32
59877;BME280;45749;51.140;17.184;2022-10-17T03:13:15;101005.22;;;12.63;94.19
59877;BME280;45749;51.140;17.184;2022-10-17T03:15:42;101006.52;;;12.57;94.05
59877;BME280;45749;51.140;17.184;2022-10-17T03:18:08;101005.02;;;12.53;94.29
59877;BME280;45749;51.140;17.184;2022-10-17T03:20:34;101005.63;;;12.51;94.29
59877;BME280;45749;51.140;17.184;2022-10-17T03:23:00;101007.88;;;12.50;94.17
59877;BME280;45749;51.140;17.184;2022-10-17T03:25:26;101009.05;;;12.46;94.00
59877;BME280;45749;51.140;17.184;2022-10-17T03:27:52;101007.94;;;12.43;94.00
59877;BME280;45749;51.140;17.184;2022-10-17T03:30:19;101002.17;;;12.43;94.03
59877;BME280;45749;51.140;17.184;2022-10-17T03:32:45;100998.20;;;12.43;93.82
59877;BME280;45749;51.140;17.184;2022-10-17T03:35:11;100986.89;;;12.41;93.49
59877;BME280;45749;51.140;17.184;2022-10-17T03:37:37;100981.66;;;12.34;93.62
59877;BME280;45749;51.140;17.184;2022-10-17T03:40:03;100993.51;;;12.29;94.08
59877;BME280;45749;51.140;17.184;2022-10-17T03:42:30;101003.45;;;12.25;94.33
59877;BME280;45749;51.140;17.184;2022-10-17T03:44:57;101001.38;;;12.23;94.70
59877;BME280;45749;51.140;17.184;2022-10-17T03:47:23;101001.86;;;12.23;94.68
59877;BME280;45749;51.140;17.184;2022-10-17T03:49:49;101004.15;;;12.22;95.01
59877;BME280;45749;51.140;17.184;2022-10-17T03:52:17;101011.13;;;12.23;94.94
59877;BME280;45749;51.140;17.184;2022-10-17T03:54:43;101015.00;;;12.24;95.09
59877;BME280;45749;51.140;17.184;2022-10-17T03:57:09;101020.17;;;12.26;95.17
59877;BME280;45749;51.140;17.184;2022-10-17T03:59:35;101017.05;;;12.26;95.10
59877;BME280;45749;51.140;17.184;2022-10-17T04:02:01;101011.28;;;12.27;94.98
59877;BME280;45749;51.140;17.184;2022-10-17T04:04:27;101013.92;;;12.27;94.91
59877;BME280;45749;51.140;17.184;2022-10-17T04:06:53;101016.20;;;12.26;94.93
59877;BME280;45749;51.140;17.184;2022-10-17T04:09:19;101019.42;;;12.24;94.90
59877;BME280;45749;51.140;17.184;2022-10-17T04:11:45;101016.69;;;12.25;94.76
59877;BME280;45749;51.140;17.184;2022-10-17T04:14:11;101017.17;;;12.25;94.64
59877;BME280;45749;51.140;17.184;2022-10-17T04:16:37;101021.70;;;12.23;94.45
59877;BME280;45749;51.140;17.184;2022-10-17T04:19:04;101020.23;;;12.18;94.48
59877;BME280;45749;51.140;17.184;2022-10-17T04:21:30;101020.80;;;12.16;94.43
59877;BME280;45749;51.140;17.184;2022-10-17T04:23:58;101021.84;;;12.14;94.39
59877;BME280;45749;51.140;17.184;2022-10-17T04:26:25;101017.04;;;12.13;94.40
59877;BME280;45749;51.140;17.184;2022-10-17T04:28:51;101018.84;;;12.13;94.33
59877;BME280;45749;51.140;17.184;2022-10-17T04:31:18;101017.52;;;12.13;94.15
59877;BME280;45749;51.140;17.184;2022-10-17T04:33:46;101026.50;;;12.10;93.93
59877;BME280;45749;51.140;17.184;2022-10-17T04:36:15;101020.97;;;12.08;94.03
59877;BME280;45749;51.140;17.184;2022-10-17T04:38:42;101018.41;;;12.06;93.94
59877;BME280;45749;51.140;17.184;2022-10-17T04:41:11;101018.05;;;12.05;93.91
59877;BME280;45749;51.140;17.184;2022-10-17T04:43:39;101016.81;;;12.04;93.94
59877;BME280;45749;51.140;17.184;2022-10-17T04:46:12;101018.26;;;12.02;93.91
59877;BME280;45749;51.140;17.184;2022-10-17T04:48:36;101017.50;;;12.00;93.92
59877;BME280;45749;51.140;17.184;2022-10-17T04:51:09;101020.91;;;12.02;94.02
59877;BME280;45749;51.140;17.184;2022-10-17T04:53:39;101024.87;;;12.02;94.00
59877;BME280;45749;51.140;17.184;2022-10-17T04:56:15;101019.58;;;12.02;93.89
59877;BME280;45749;51.140;17.184;2022-10-17T04:58:43;101016.57;;;12.01;93.88
59877;BME280;45749;51.140;17.184;2022-10-17T05:01:13;101017.14;;;11.99;93.93
59877;BME280;45749;51.140;17.184;2022-10-17T05:03:41;101017.14;;;11.99;93.92
59877;BME280;45749;51.140;17.184;2022-10-17T05:06:14;101024.11;;;12.00;93.93
59877;BME280;45749;51.140;17.184;2022-10-17T05:08:38;101023.63;;;12.01;93.92
59877;BME280;45749;51.140;17.184;2022-10-17T05:11:04;101023.27;;;12.00;94.01
59877;BME280;45749;51.140;17.184;2022-10-17T05:13:33;101025.55;;;11.99;94.00
59877;BME280;45749;51.140;17.184;2022-10-17T05:16:00;101024.80;;;11.96;94.13
59877;BME280;45749;51.140;17.184;2022-10-17T05:18:27;101023.59;;;11.95;94.19
59877;BME280;45749;51.140;17.184;2022-10-17T05:20:54;101036.54;;;11.92;94.28
59877;BME280;45749;51.140;17.184;2022-10-17T05:23:20;101037.95;;;11.91;94.49
59877;BME280;45749;51.140;17.184;2022-10-17T05:25:46;101043.35;;;11.89;94.60
59877;BME280;45749;51.140;17.184;2022-10-17T05:28:12;101048.76;;;11.88;94.59
59877;BME280;45749;51.140;17.184;2022-10-17T05:30:38;101045.84;;;11.85;94.62
59877;BME280;45749;51.140;17.184;2022-10-17T05:33:04;101052.05;;;11.84;94.68
59877;BME280;45749;51.140;17.184;2022-10-17T05:35:30;101058.27;;;11.83;94.85
59877;BME280;45749;51.140;17.184;2022-10-17T05:37:57;101060.44;;;11.84;94.70
59877;BME280;45749;51.140;17.184;2022-10-17T05:40:23;101062.23;;;11.83;94.60
59877;BME280;45749;51.140;17.184;2022-10-17T05:42:49;101073.38;;;11.81;94.75
59877;BME280;45749;51.140;17.184;2022-10-17T05:45:15;101068.69;;;11.79;94.76
59877;BME280;45749;51.140;17.184;2022-10-17T05:47:41;101073.12;;;11.79;94.73
59877;BME280;45749;51.140;17.184;2022-10-17T05:50:07;101071.05;;;11.77;94.85
59877;BME280;45749;51.140;17.184;2022-10-17T05:52:34;101079.94;;;11.76;94.91
59877;BME280;45749;51.140;17.184;2022-10-17T05:55:02;101087.03;;;11.75;95.09
59877;BME280;45749;51.140;17.184;2022-10-17T05:57:32;101092.77;;;11.74;95.10
59877;BME280;45749;51.140;17.184;2022-10-17T05:59:58;101090.99;;;11.75;95.25
59877;BME280;45749;51.140;17.184;2022-10-17T06:02:25;101096.00;;;11.72;95.49
59877;BME280;45749;51.140;17.184;2022-10-17T06:04:51;101098.28;;;11.71;95.68
59877;BME280;45749;51.140;17.184;2022-10-17T06:07:17;101101.01;;;11.70;95.67
59877;BME280;45749;51.140;17.184;2022-10-17T06:09:43;101097.04;;;11.70;95.72
59877;BME280;45749;51.140;17.184;2022-10-17T06:12:09;101098.64;;;11.72;95.80
59877;BME280;45749;51.140;17.184;2022-10-17T06:14:35;101104.21;;;11.75;95.89
59877;BME280;45749;51.140;17.184;2022-10-17T06:17:01;101105.42;;;11.77;96.00
59877;BME280;45749;51.140;17.184;2022-10-17T06:19:27;101103.14;;;11.78;95.98
59877;BME280;45749;51.140;17.184;2022-10-17T06:21:53;101106.91;;;11.81;95.96
59877;BME280;45749;51.140;17.184;2022-10-17T06:24:19;101111.55;;;11.84;95.96
59877;BME280;45749;51.140;17.184;2022-10-17T06:26:45;101109.58;;;11.88;96.05
59877;BME280;45749;51.140;17.184;2022-10-17T06:29:12;101110.80;;;11.89;96.40
59877;BME280;45749;51.140;17.184;2022-10-17T06:31:38;101109.83;;;11.90;96.31
59877;BME280;45749;51.140;17.184;2022-10-17T06:34:04;101108.42;;;11.92;96.69
59877;BME280;45749;51.140;17.184;2022-10-17T06:36:30;101112.75;;;11.93;97.44
59877;BME280;45749;51.140;17.184;2022-10-17T06:38:56;101109.16;;;11.94;98.24
59877;BME280;45749;51.140;17.184;2022-10-17T06:41:23;101108.95;;;11.97;98.64
59877;BME280;45749;51.140;17.184;2022-10-17T06:43:49;101104.42;;;11.99;99.03
59877;BME280;45749;51.140;17.184;2022-10-17T06:46:16;101105.91;;;12.03;99.32
59877;BME280;45749;51.140;17.184;2022-10-17T06:48:43;101100.41;;;12.06;99.53
59877;BME280;45749;51.140;17.184;2022-10-17T06:51:10;101108.42;;;12.12;99.66
59877;BME280;45749;51.140;17.184;2022-10-17T06:53:39;101111.59;;;12.17;99.68
59877;BME280;45749;51.140;17.184;2022-10-17T06:56:06;101111.79;;;12.21;99.70
59877;BME280;45749;51.140;17.184;2022-10-17T06:58:36;101117.12;;;12.27;100.00
59877;BME280;45749;51.140;17.184;2022-10-17T07:01:06;101120.80;;;12.31;100.00
59877;BME280;45749;51.140;17.184;2022-10-17T07:03:35;101120.27;;;12.39;100.00
59877;BME280;45749;51.140;17.184;2022-10-17T07:06:03;101119.38;;;12.46;100.00
59877;BME280;45749;51.140;17.184;2022-10-17T07:08:29;101126.80;;;12.53;100.00
59877;BME280;45749;51.140;17.184;2022-10-17T07:10:56;101128.55;;;12.60;100.00
59877;BME280;45749;51.140;17.184;2022-10-17T07:13:22;101125.48;;;12.66;100.00
59877;BME280;45749;51.140;17.184;2022-10-17T07:15:48;101130.36;;;12.72;100.00
59877;BME280;45749;51.140;17.184;2022-10-17T07:18:14;101131.75;;;12.78;100.00
59877;BME280;45749;51.140;17.184;2022-10-17T07:20:41;101136.62;;;12.84;100.00
59877;BME280;45749;51.140;17.184;2022-10-17T07:23:07;101140.17;;;12.90;100.00
59877;BME280;45749;51.140;17.184;2022-10-17T07:25:57;101139.27;;;12.97;100.00
59877;BME280;45749;51.140;17.184;2022-10-17T07:28:22;101138.45;;;13.02;100.00
59877;BME280;45749;51.140;17.184;2022-10-17T07:30:48;101144.53;;;13.09;100.00
59877;BME280;45749;51.140;17.184;2022-10-17T07:33:15;101140.83;;;13.12;100.00
59877;BME280;45749;51.140;17.184;2022-10-17T07:35:41;101145.75;;;13.24;100.00
59877;BME280;45749;51.140;17.184;2022-10-17T07:38:08;101144.39;;;13.31;100.00
59877;BME280;45749;51.140;17.184;2022-10-17T07:40:38;101154.70;;;13.41;100.00
59877;BME280;45749;51.140;17.184;2022-10-17T07:43:10;101152.37;;;13.49;100.00
59877;BME280;45749;51.140;17.184;2022-10-17T07:45:45;101152.17;;;13.58;100.00
59877;BME280;45749;51.140;17.184;2022-10-17T07:48:10;101149.83;;;13.66;100.00
59877;BME280;45749;51.140;17.184;2022-10-17T07:50:39;101155.67;;;13.77;100.00
59877;BME280;45749;51.140;17.184;2022-10-17T07:53:06;101155.36;;;13.87;100.00
59877;BME280;45749;51.140;17.184;2022-10-17T07:55:32;101152.39;;;13.97;100.00
59877;BME280;45749;51.140;17.184;2022-10-17T07:57:58;101148.09;;;14.07;100.00
59877;BME280;45749;51.140;17.184;2022-10-17T08:00:25;101154.80;;;14.19;100.00
59877;BME280;45749;51.140;17.184;2022-10-17T08:02:52;101150.36;;;14.25;100.00
59877;BME280;45749;51.140;17.184;2022-10-17T08:05:18;101156.28;;;14.34;100.00
59877;BME280;45749;51.140;17.184;2022-10-17T08:07:46;101148.38;;;14.45;100.00
59877;BME280;45749;51.140;17.184;2022-10-17T08:10:13;101151.56;;;14.56;100.00
59877;BME280;45749;51.140;17.184;2022-10-17T08:12:42;101151.12;;;14.68;100.00
59877;BME280;45749;51.140;17.184;2022-10-17T08:15:09;101156.30;;;14.81;100.00
59877;BME280;45749;51.140;17.184;2022-10-17T08:17:37;101145.83;;;14.96;100.00
59877;BME280;45749;51.140;17.184;2022-10-17T08:20:05;101149.56;;;15.10;100.00
59877;BME280;45749;51.140;17.184;2022-10-17T08:22:32;101144.63;;;15.28;100.00
59877;BME280;45749;51.140;17.184;2022-10-17T08:25:06;101144.25;;;15.44;100.00
59877;BME280;45749;51.140;17.184;2022-10-17T08:27:36;101151.47;;;15.59;100.00
59877;BME280;45749;51.140;17.184;2022-10-17T08:30:03;101151.95;;;15.75;100.00
59877;BME280;45749;51.140;17.184;2022-10-17T08:32:29;101149.63;;;15.87;99.65
59877;BME280;45749;51.140;17.184;2022-10-17T08:34:55;101144.01;;;16.02;99.14
59877;BME280;45749;51.140;17.184;2022-10-17T08:37:28;101148.07;;;16.17;98.77
59877;BME280;45749;51.140;17.184;2022-10-17T08:39:56;101148.14;;;16.32;98.82
59877;BME280;45749;51.140;17.184;2022-10-17T08:42:53;101143.81;;;16.47;98.79
59877;BME280;45749;51.140;17.184;2022-10-17T08:48:08;101152.61;;;16.79;96.72
59877;BME280;45749;51.140;17.184;2022-10-17T08:59:58;101141.49;;;17.35;96.12
59877;BME280;45749;51.140;17.184;2022-10-17T09:16:50;101140.80;;;18.22;91.75
59877;BME280;45749;51.140;17.184;2022-10-17T09:30:53;101137.78;;;18.84;88.84
59877;BME280;45749;51.140;17.184;2022-10-17T09:39:18;101132.97;;;19.25;89.13
59877;BME280;45749;51.140;17.184;2022-10-17T09:53:32;101133.30;;;19.81;86.83
59877;BME280;45749;51.140;17.184;2022-10-17T10:05:13;101135.04;;;20.22;84.29
59877;BME280;45749;51.140;17.184;2022-10-17T10:10:27;101128.20;;;20.49;85.14
59877;BME280;45749;51.140;17.184;2022-10-17T10:22:21;101121.52;;;20.97;80.98
59877;BME280;45749;51.140;17.184;2022-10-17T10:27:26;101120.38;;;21.08;80.48
59877;BME280;45749;51.140;17.184;2022-10-17T10:29:59;101126.78;;;21.15;78.96
59877;BME280;45749;51.140;17.184;2022-10-17T10:32:34;101128.83;;;21.21;80.90
59877;BME280;45749;51.140;17.184;2022-10-17T10:35:22;101126.34;;;21.32;79.69
59877;BME280;45749;51.140;17.184;2022-10-17T10:44:02;101127.50;;;21.60;79.60
59877;BME280;45749;51.140;17.184;2022-10-17T10:46:32;101127.17;;;21.71;78.63
59877;BME280;45749;51.140;17.184;2022-10-17T10:49:35;101122.49;;;21.77;77.31
59877;BME280;45749;51.140;17.184;2022-10-17T10:52:03;101119.33;;;21.82;76.35
59877;BME280;45749;51.140;17.184;2022-10-17T10:54:35;101121.83;;;21.87;76.14
59877;BME280;45749;51.140;17.184;2022-10-17T10:59:51;101120.33;;;22.01;76.12
59877;BME280;45749;51.140;17.184;2022-10-17T11:21:15;101103.73;;;22.46;74.83
59877;BME280;45749;51.140;17.184;2022-10-17T11:27:00;101096.49;;;22.47;73.77
59877;BME280;45749;51.140;17.184;2022-10-17T11:29:42;101096.84;;;22.48;73.58
59877;BME280;45749;51.140;17.184;2022-10-17T11:32:38;101092.29;;;22.53;73.97
59877;BME280;45749;51.140;17.184;2022-10-17T11:40:42;101084.22;;;22.61;73.09
59877;BME280;45749;51.140;17.184;2022-10-17T11:43:43;101089.08;;;22.65;72.00
59877;BME280;45749;51.140;17.184;2022-10-17T11:49:19;101081.16;;;22.72;72.39
